Terminal Aerodrome Forecast
Issued by NWS

Home | Current Version | Previous Version | Text Only | Print | Product List | Glossary On
Versions: 1 2 3 4 5 6 7 8 9 10 11 12 13 14 15 16 17 18 19 20 21 22
000
FTUS41 KPBZ 301100
TAFZZV
TAF
KZZV 301120Z 3012/3112 30010G20KT P6SM -SHSN BKN025 OVC040
      TEMPO 3012/3013 2SM -SHSN BKN008
     FM301800 31011G22KT P6SM BKN035
     FM310000 31007KT P6SM SCT030=

USA.gov is the U.S. government's official web portal to all federal, state and local government web resources and services.